createdAt,value
2023-04-10T00:02:27.346Z,7.00
2023-04-10T00:08:29.361Z,6.90
2023-04-10T00:14:31.378Z,6.95
2023-04-10T00:20:33.537Z,7.07
2023-04-10T00:26:38.466Z,7.10
2023-04-10T00:32:40.625Z,6.98
2023-04-10T00:38:42.565Z,6.94
2023-04-10T00:44:45.318Z,6.73
2023-04-10T00:50:47.585Z,6.45
2023-04-10T00:56:50.568Z,5.96
2023-04-10T01:02:53.913Z,5.85
2023-04-10T01:09:05.554Z,5.87
2023-04-10T01:15:21.011Z,5.78
2023-04-10T01:21:24.850Z,6.03
2023-04-10T01:27:47.163Z,6.07
2023-04-10T01:33:57.432Z,6.06
2023-04-10T01:40:08.625Z,5.98
2023-04-10T01:46:12.850Z,5.97
2023-04-10T01:52:16.579Z,5.89
2023-04-10T01:58:19.236Z,5.75
2023-04-10T02:04:21.182Z,5.78
2023-04-10T02:10:31.468Z,5.68
2023-04-10T02:16:34.378Z,5.64
2023-04-10T02:22:37.021Z,5.50
2023-04-10T02:28:39.903Z,5.52
2023-04-10T02:34:43.787Z,5.47
2023-04-10T02:40:46.489Z,5.51
2023-04-10T02:46:48.398Z,5.53
2023-04-10T02:52:50.385Z,5.41
2023-04-10T02:58:52.329Z,5.36
2023-04-10T03:04:54.344Z,5.16
2023-04-10T03:10:56.459Z,5.20
2023-04-10T03:16:58.375Z,5.01
2023-04-10T03:23:00.760Z,5.04
2023-04-10T03:29:02.728Z,5.16
2023-04-10T03:35:05.153Z,4.92
2023-04-10T03:41:07.353Z,5.06
2023-04-10T03:47:09.340Z,4.75
2023-04-10T03:53:11.232Z,4.69
2023-04-10T03:59:13.103Z,4.61
2023-04-10T04:05:15.012Z,4.52
2023-04-10T04:11:16.951Z,4.56
2023-04-10T04:17:21.119Z,4.77
2023-04-10T04:23:23.078Z,4.80
2023-04-10T04:29:25.016Z,4.64
2023-04-10T04:35:26.926Z,4.41
2023-04-10T04:41:32.188Z,4.27
2023-04-10T04:47:34.155Z,4.27
2023-04-10T04:53:36.986Z,4.52
2023-04-10T04:59:38.897Z,4.50
2023-04-10T05:05:40.856Z,4.48
2023-04-10T05:11:42.785Z,4.49
2023-04-10T05:17:44.807Z,4.58
2023-04-10T05:23:46.712Z,4.88
2023-04-10T05:29:48.598Z,5.04
2023-04-10T05:35:50.857Z,5.08
2023-04-10T05:41:52.784Z,5.22
2023-04-10T05:47:54.837Z,5.64
2023-04-10T05:53:56.735Z,5.84
2023-04-10T05:59:58.675Z,6.03
2023-04-10T06:06:02.558Z,6.07
2023-04-10T06:12:04.642Z,6.40
2023-04-10T06:18:06.543Z,6.60
2023-04-10T06:24:09.220Z,6.92
2023-04-10T06:30:12.282Z,7.49
2023-04-10T06:36:14.171Z,7.77
2023-04-10T06:42:16.147Z,8.01
2023-04-10T06:48:18.029Z,8.69
2023-04-10T06:54:21.201Z,10.32
2023-04-10T07:00:24.042Z,11.52
2023-04-10T07:06:27.012Z,13.85
2023-04-10T07:12:29.611Z,14.87
2023-04-10T07:18:31.629Z,13.07
2023-04-10T07:24:33.513Z,12.28
2023-04-10T07:30:35.384Z,12.24
2023-04-10T07:36:37.356Z,12.69
2023-04-10T07:42:39.338Z,13.31
2023-04-10T07:48:41.370Z,13.32
2023-04-10T07:54:43.278Z,13.48
2023-04-10T08:00:45.574Z,13.99
2023-04-10T08:06:47.580Z,14.15
2023-04-10T08:12:49.687Z,14.82
2023-04-10T08:18:53.266Z,15.07
2023-04-10T08:24:55.415Z,15.52
2023-04-10T08:30:57.336Z,15.65
2023-04-10T08:36:59.336Z,16.07
2023-04-10T08:43:01.302Z,16.77
2023-04-10T08:49:05.466Z,16.63
2023-04-10T08:55:09.369Z,17.36
2023-04-10T09:01:11.966Z,17.79
2023-04-10T09:07:13.934Z,18.00
2023-04-10T09:13:15.884Z,18.66
2023-04-10T09:19:34.083Z,19.00
2023-04-10T09:25:39.562Z,19.18
2023-04-10T09:31:42.840Z,19.58
2023-04-10T09:37:46.805Z,20.97
2023-04-10T09:43:48.818Z,21.60
2023-04-10T09:50:00.522Z,22.96
2023-04-10T09:56:05.262Z,24.02
2023-04-10T10:02:07.874Z,24.52
2023-04-10T10:08:15.531Z,24.83
2023-04-10T10:14:21.431Z,25.52
2023-04-10T10:20:27.838Z,26.59
2023-04-10T10:26:32.163Z,27.05
2023-04-10T10:32:38.683Z,27.71
2023-04-10T10:38:48.838Z,28.91
2023-04-10T10:45:05.635Z,30.13
2023-04-10T10:51:07.634Z,30.14
2023-04-10T10:57:52.359Z,30.84
2023-04-10T11:03:54.507Z,31.51
2023-04-10T11:09:57.707Z,31.83
2023-04-10T11:16:02.116Z,30.62
2023-04-10T11:22:08.042Z,31.13
2023-04-10T11:28:10.155Z,31.06
2023-04-10T11:34:12.655Z,31.91
2023-04-10T11:40:14.611Z,31.90
2023-04-10T11:46:16.612Z,31.21
2023-04-10T11:52:25.792Z,29.87
2023-04-10T11:58:32.082Z,31.51
2023-04-10T12:04:34.998Z,31.85
2023-04-10T12:10:47.469Z,31.51
2023-04-10T12:16:52.854Z,31.62
2023-04-10T12:22:56.975Z,31.40
2023-04-10T12:28:58.902Z,29.22
2023-04-10T12:35:01.427Z,28.53
2023-04-10T12:41:04.389Z,27.28
2023-04-10T12:47:06.275Z,27.75
2023-04-10T12:53:09.091Z,27.64
2023-04-10T12:59:11.233Z,27.13
2023-04-10T13:05:13.525Z,26.59
2023-04-10T13:11:15.458Z,25.54
2023-04-10T13:17:17.334Z,25.01
2023-04-10T13:23:19.284Z,24.17
2023-04-10T13:29:21.246Z,24.40
2023-04-10T13:35:23.230Z,24.37
2023-04-10T13:41:25.407Z,24.08
2023-04-10T13:47:27.329Z,23.18
2023-04-10T13:53:29.262Z,23.32
2023-04-10T13:59:31.283Z,24.07
2023-04-10T14:05:33.184Z,26.01
2023-04-10T14:11:35.138Z,26.72
2023-04-10T14:17:37.114Z,27.69
2023-04-10T14:23:39.213Z,27.54
2023-04-10T14:29:50.647Z,27.38
2023-04-10T14:35:56.609Z,27.26
2023-04-10T14:41:58.591Z,26.20
2023-04-10T14:48:00.866Z,25.59
2023-04-10T14:54:04.438Z,24.73
2023-04-10T15:00:07.232Z,22.92
2023-04-10T15:06:09.217Z,22.43
2023-04-10T15:12:11.254Z,21.86
2023-04-10T15:18:13.157Z,21.90
2023-04-10T15:24:15.354Z,21.56
2023-04-10T15:30:17.638Z,21.65
2023-04-10T15:36:19.591Z,22.47
2023-04-10T15:42:21.672Z,26.81
2023-04-10T15:48:24.687Z,27.61
2023-04-10T15:54:26.666Z,27.54
2023-04-10T16:00:28.561Z,26.51
2023-04-10T16:06:31.268Z,25.06
2023-04-10T16:12:33.182Z,23.60
2023-04-10T16:18:35.349Z,23.00
2023-04-10T16:24:37.292Z,21.91
2023-04-10T16:30:40.005Z,20.96
2023-04-10T16:36:41.910Z,19.80
2023-04-10T16:42:43.863Z,19.20
2023-04-10T16:48:45.941Z,18.92
2023-04-10T16:54:47.908Z,18.74
2023-04-10T17:00:49.837Z,18.10
2023-04-10T17:06:51.882Z,17.93
2023-04-10T17:12:53.813Z,17.81
2023-04-10T17:18:56.119Z,17.71
2023-04-10T17:24:58.352Z,16.92
2023-04-10T17:31:00.524Z,16.78
2023-04-10T17:37:02.493Z,16.65
2023-04-10T17:43:04.570Z,16.23
2023-04-10T17:49:06.579Z,16.02
2023-04-10T17:55:09.139Z,15.73
2023-04-10T18:01:11.590Z,15.41
2023-04-10T18:07:13.572Z,15.19
2023-04-10T18:13:15.502Z,14.91
2023-04-10T18:19:17.403Z,14.58
2023-04-10T18:25:19.324Z,14.40
2023-04-10T18:31:21.318Z,14.24
2023-04-10T18:37:23.333Z,14.05
2023-04-10T18:43:27.553Z,14.13
2023-04-10T18:49:31.078Z,14.00
2023-04-10T18:55:33.092Z,13.84
2023-04-10T19:01:35.202Z,13.80
2023-04-10T19:07:37.223Z,13.79
2023-04-10T19:13:39.135Z,13.82
2023-04-10T19:19:41.764Z,13.73
2023-04-10T19:25:44.222Z,13.87
2023-04-10T19:31:46.190Z,13.89
2023-04-10T19:37:49.667Z,13.75
2023-04-10T19:43:52.851Z,13.60
2023-04-10T19:49:54.887Z,13.63
2023-04-10T19:55:56.867Z,13.64
2023-04-10T20:01:58.843Z,13.97
2023-04-10T20:08:01.971Z,13.60
2023-04-10T20:14:03.920Z,13.58
2023-04-10T20:20:06.566Z,13.41
2023-04-10T20:26:08.628Z,13.42
2023-04-10T20:32:10.686Z,13.54
2023-04-10T20:38:12.656Z,13.53
2023-04-10T20:44:14.549Z,13.42
2023-04-10T20:50:16.595Z,13.26
2023-04-10T20:56:19.972Z,13.35
2023-04-10T21:02:23.285Z,13.26
2023-04-10T21:08:25.301Z,13.28
2023-04-10T21:14:27.307Z,13.27
2023-04-10T21:20:29.319Z,13.23
2023-04-10T21:26:31.249Z,13.33
2023-04-10T21:32:33.169Z,13.68
2023-04-10T21:38:35.373Z,13.56
2023-04-10T21:44:37.261Z,13.39
2023-04-10T21:50:39.738Z,13.45
2023-04-10T21:56:41.894Z,13.36
2023-04-10T22:02:44.663Z,13.24
2023-04-10T22:08:46.762Z,13.17
2023-04-10T22:14:49.324Z,13.33
2023-04-10T22:20:51.190Z,13.32
2023-04-10T22:26:53.161Z,13.32
2023-04-10T22:32:58.320Z,13.21
2023-04-10T22:39:00.415Z,13.08
2023-04-10T22:45:02.984Z,13.05
2023-04-10T22:51:11.637Z,13.15
2023-04-10T22:57:13.536Z,12.86
2023-04-10T23:03:15.481Z,12.59
2023-04-10T23:09:17.444Z,12.59
2023-04-10T23:15:19.802Z,12.88
2023-04-10T23:21:21.828Z,13.20
2023-04-10T23:27:24.088Z,13.07
2023-04-10T23:33:25.994Z,12.59
2023-04-10T23:39:27.995Z,12.28
2023-04-10T23:45:29.872Z,11.91
2023-04-10T23:51:32.912Z,11.53
2023-04-10T23:57:34.803Z,11.42
